Página principal
METAR-TAF:

METAR-TAF

Aeroportos :

Dakar, Senegal

Aeroporto Internacional Yoff-Léopold Sédar Senghor

latitude: 14-44N, longitude: 017-30W, altura: 27 m

Observação actual do tempo

O boletim foi feito há 29 minutos, às 14:00 UTC
Vento 7 kt de oes-noroeste, variando entre oeste e noroeste
Temperatura 26°C
Humidade 84%
Pressão 1011 hPa
Visibilidade 10 km ou mais
Poucas nuvensa uma altura de 1000 ft

METAR: GOOY 181400Z 30007KT 260V320 9999 FEW010 26/23 Q1011 NOSIG

Hora: 14:29 (14:29 UTC)

Previsão

O boletim foi feito há 2 horas e 59 minutos, às 11:30 UTC
Previsão válida de 18 às 12 UTC a 19 às 18 UTC
Vento 10 kt de oes-noroeste
Visibilidade 10 km ou mais
Nuvens dispersasa uma altura de 1200 ft

TAF: GOOY 181130Z 1812/1918 30010KT 9999 SCT012

Observações e previsões do tempo de mais de 4000 aeroportos (mensagens METAR e TAF).

As estações disponíveis são os pontos amarelos e vermelhos sobre o mapa.

Mova o rato sobre o mapa para ver o nome da estação.

Depois clique no ponto para visualizar as observações e previsões meteorológicas.

Para alterar o mapa : clique nos botões verdes com uma cruz preta para aumentar o zoom; no botão verde com uma pitada de zoom; ou nas setas verdes para mapas adjacentes.


METAR-TAF: